Terminal Aerodrome Forecast
Issued by NWS San Angelo, TX

Home | Current Version | Previous Version | Text Only | Print | Product List | Glossary On
Versions: 1 2 3 4 5 6 7 8 9 10 11 12 13 14
705
FTUS44 KSJT 211723
TAFABI
TAF
KABI 211723Z 2118/2218 35015G23KT P6SM BKN250
     FM220200 01017G26KT P6SM SCT250
     FM220600 01012G19KT P6SM SCT250
     FM221100 35007KT P6SM SKC=

USA.gov is the U.S. government's official web portal to all federal, state and local government web resources and services.